Time;durP1;ratioP1;P1;durP2;ratioP2;P2;SDS_P1;SDS_P2;PMS_P1;PMS_P2;Temp;Humidity;BMP_temperature;BMP_pressure;BME280_temperature;BME280_humidity;BME280_pressure;Samples;Min_cycle;Max_cycle;Signal;HPM_P1;HPM_P2
2022/09/14 00:00:46;;;;;;;4.20;3.90;;;;;;;;;;5057459;28;20111;-75
2022/09/14 00:03:12;;;;;;;4.50;3.95;;;;;;;;;;5058353;28;20030;-74
2022/09/14 00:05:37;;;;;;;4.80;4.28;;;;;;;;;;5059925;28;20393;-75
2022/09/14 00:08:03;;;;;;;5.55;3.92;;;;;;;;;;5059692;28;20024;-73
2022/09/14 00:10:29;;;;;;;3.97;3.67;;;;;;;;;;5056775;28;20024;-74
2022/09/14 00:12:54;;;;;;;4.32;3.67;;;;;;;;;;5043627;28;20446;-76
2022/09/14 00:15:19;;;;;;;4.63;4.20;;;;;;;;;;5041236;28;20068;-76
2022/09/14 00:17:45;;;;;;;4.30;4.00;;;;;;;;;;5056951;28;20036;-74
2022/09/14 00:20:10;;;;;;;4.40;4.00;;;;;;;;;;5057754;28;20027;-75
2022/09/14 00:22:35;;;;;;;4.50;4.03;;;;;;;;;;5059874;28;20475;-74
2022/09/14 00:25:01;;;;;;;4.25;3.95;;;;;;;;;;5060724;28;20035;-74
2022/09/14 00:27:26;;;;;;;4.72;4.15;;;;;;;;;;5042694;28;20431;-75
2022/09/14 00:29:51;;;;;;;4.28;3.88;;;;;;;;;;5057942;28;20021;-75
2022/09/14 00:32:17;;;;;;;4.15;3.85;;;;;;;;;;5059370;28;20040;-75
2022/09/14 00:34:43;;;;;;;4.53;4.10;;;;;;;;;;5061714;28;20028;-75
2022/09/14 00:37:09;;;;;;;4.50;4.10;;;;;;;;;;5060822;28;20021;-77
2022/09/14 00:39:35;;;;;;;6.32;4.00;;;;;;;;;;5058647;28;20024;-75
2022/09/14 00:42:00;;;;;;;6.05;4.15;;;;;;;;;;5060398;28;20031;-75
2022/09/14 00:44:26;;;;;;;4.30;4.00;;;;;;;;;;5058046;28;20044;-75
2022/09/14 00:46:53;;;;;;;4.57;4.18;;;;;;;;;;5059519;28;20037;-75
2022/09/14 00:49:24;;;;;;;4.00;3.70;;;;;;;;;;5055859;28;20024;-76
2022/09/14 00:51:49;;;;;;;5.55;4.15;;;;;;;;;;5058064;28;20338;-75
2022/09/14 00:54:14;;;;;;;4.45;4.15;;;;;;;;;;5060353;28;20032;-73
2022/09/14 00:56:40;;;;;;;4.95;4.55;;;;;;;;;;5060069;28;20057;-76
2022/09/14 00:59:11;;;;;;;4.68;4.38;;;;;;;;;;5054754;28;20044;-74
2022/09/14 01:01:37;;;;;;;5.05;4.55;;;;;;;;;;5058016;28;20446;-75
2022/09/14 01:04:02;;;;;;;6.45;4.70;;;;;;;;;;5057712;28;20029;-76
2022/09/14 01:06:37;;;;;;;4.78;4.28;;;;;;;;;;5060629;28;20406;-74
2022/09/14 01:09:17;;;;;;;4.60;4.30;;;;;;;;;;5059295;28;20043;-75
2022/09/14 01:11:54;;;;;;;4.63;4.30;;;;;;;;;;5056747;28;20082;-73
2022/09/14 01:14:19;;;;;;;5.82;4.93;;;;;;;;;;5057657;28;20082;-74
2022/09/14 01:16:48;;;;;;;4.90;4.50;;;;;;;;;;5046547;28;20028;-73
2022/09/14 01:19:22;;;;;;;5.67;4.33;;;;;;;;;;5047426;28;20031;-72
2022/09/14 01:21:49;;;;;;;4.75;4.35;;;;;;;;;;5057691;28;20028;-73
2022/09/14 01:24:18;;;;;;;5.30;4.80;;;;;;;;;;5056942;28;20609;-73
2022/09/14 01:26:49;;;;;;;5.32;4.88;;;;;;;;;;5056532;28;20024;-74
2022/09/14 01:29:16;;;;;;;5.10;4.60;;;;;;;;;;5056313;28;20059;-73
2022/09/14 01:31:48;;;;;;;5.22;4.82;;;;;;;;;;5040717;28;20448;-74
2022/09/14 01:34:16;;;;;;;4.93;4.53;;;;;;;;;;5056404;28;20832;-73
2022/09/14 01:36:44;;;;;;;5.43;4.93;;;;;;;;;;5058997;28;20098;-74
2022/09/14 01:39:11;;;;;;;5.32;4.93;;;;;;;;;;5058921;28;20050;-74
2022/09/14 01:41:37;;;;;;;5.30;4.90;;;;;;;;;;5058975;28;20090;-74
2022/09/14 01:44:08;;;;;;;5.40;4.97;;;;;;;;;;5055005;28;20147;-74
2022/09/14 01:46:41;;;;;;;4.97;4.57;;;;;;;;;;5058203;28;20047;-74
2022/09/14 01:49:10;;;;;;;5.15;4.75;;;;;;;;;;5060251;28;20098;-76
2022/09/14 01:51:45;;;;;;;5.20;4.70;;;;;;;;;;5062149;28;20058;-74
2022/09/14 01:54:22;;;;;;;4.90;4.40;;;;;;;;;;5060655;28;20037;-73
2022/09/14 01:56:52;;;;;;;5.57;5.13;;;;;;;;;;5062333;28;20082;-74
2022/09/14 01:59:20;;;;;;;5.03;4.65;;;;;;;;;;5060209;28;20347;-73
2022/09/14 02:01:48;;;;;;;5.50;5.10;;;;;;;;;;5060251;28;20027;-74
2022/09/14 02:04:16;;;;;;;6.03;5.63;;;;;;;;;;5061475;28;20378;-77
2022/09/14 02:06:42;;;;;;;5.82;5.25;;;;;;;;;;5042591;28;20058;-74
2022/09/14 02:09:09;;;;;;;5.60;5.20;;;;;;;;;;5063034;28;20512;-76
2022/09/14 02:11:35;;;;;;;5.57;5.18;;;;;;;;;;5059224;28;20444;-75
2022/09/14 02:14:01;;;;;;;5.00;4.57;;;;;;;;;;5042225;28;20028;-75
2022/09/14 02:16:26;;;;;;;5.72;5.00;;;;;;;;;;5062491;28;20415;-74
2022/09/14 02:18:52;;;;;;;5.40;5.00;;;;;;;;;;5058110;28;20116;-75
2022/09/14 02:21:20;;;;;;;5.15;4.75;;;;;;;;;;5036733;28;20104;-74
2022/09/14 02:23:47;;;;;;;5.55;5.15;;;;;;;;;;5060546;28;20032;-75
2022/09/14 02:26:14;;;;;;;5.30;4.80;;;;;;;;;;5060806;28;20032;-74
2022/09/14 02:28:39;;;;;;;5.53;4.90;;;;;;;;;;5062118;28;20079;-75
2022/09/14 02:31:14;;;;;;;5.63;5.13;;;;;;;;;;5060210;28;20059;-77
2022/09/14 02:33:42;;;;;;;5.47;4.97;;;;;;;;;;5045468;28;20031;-74
2022/09/14 02:36:15;;;;;;;5.57;4.70;;;;;;;;;;5058113;28;20035;-74
2022/09/14 02:38:55;;;;;;;5.20;4.80;;;;;;;;;;5061110;28;20106;-74
2022/09/14 02:41:20;;;;;;;5.30;4.55;;;;;;;;;;5042791;28;20025;-73
2022/09/14 02:44:01;;;;;;;5.60;5.10;;;;;;;;;;5061099;28;20059;-76
2022/09/14 02:46:29;;;;;;;5.75;5.18;;;;;;;;;;5061464;28;20033;-75
2022/09/14 02:49:00;;;;;;;5.45;5.00;;;;;;;;;;5058944;28;20553;-75
2022/09/14 02:51:31;;;;;;;5.00;4.70;;;;;;;;;;5061512;28;20093;-75
2022/09/14 02:53:58;;;;;;;5.60;5.10;;;;;;;;;;5060240;28;20036;-75
2022/09/14 02:56:24;;;;;;;5.22;4.82;;;;;;;;;;5061225;28;20035;-74
2022/09/14 02:58:49;;;;;;;5.90;5.30;;;;;;;;;;5055115;28;20020;-76
2022/09/14 03:01:16;;;;;;;5.43;4.93;;;;;;;;;;5046484;28;20036;-76
2022/09/14 03:03:42;;;;;;;5.63;5.13;;;;;;;;;;5059942;28;20084;-74
2022/09/14 03:06:07;;;;;;;5.13;4.72;;;;;;;;;;5058277;28;20028;-75
2022/09/14 03:08:33;;;;;;;6.05;5.65;;;;;;;;;;5060481;28;20060;-75
2022/09/14 03:10:58;;;;;;;6.47;5.75;;;;;;;;;;5058869;28;20356;-75
2022/09/14 03:13:24;;;;;;;6.97;6.30;;;;;;;;;;5061417;28;20431;-74
2022/09/14 03:15:49;;;;;;;5.68;5.28;;;;;;;;;;5061296;28;20120;-75
2022/09/14 03:18:15;;;;;;;6.30;5.80;;;;;;;;;;5046871;28;20060;-77
2022/09/14 03:20:40;;;;;;;6.30;5.80;;;;;;;;;;5053981;28;20037;-77
2022/09/14 03:23:07;;;;;;;6.72;5.63;;;;;;;;;;5061068;28;20054;-75
2022/09/14 03:25:37;;;;;;;5.75;5.35;;;;;;;;;;5054967;28;20032;-76
2022/09/14 03:28:02;;;;;;;;;;;;;;;;;;5060077;28;20100;-75
2022/09/14 03:30:28;;;;;;;5.80;5.40;;;;;;;;;;5059809;28;20047;-75
2022/09/14 03:32:53;;;;;;;5.55;5.15;;;;;;;;;;5059697;28;20347;-75
2022/09/14 03:35:19;;;;;;;5.22;4.78;;;;;;;;;;5058115;28;20515;-76
2022/09/14 03:37:45;;;;;;;6.22;5.65;;;;;;;;;;5059749;28;20028;-74
2022/09/14 03:40:11;;;;;;;5.97;5.38;;;;;;;;;;5057019;28;20050;-74
2022/09/14 03:42:41;;;;;;;5.95;5.55;;;;;;;;;;5052482;28;20661;-75
2022/09/14 03:45:06;;;;;;;5.70;5.25;;;;;;;;;;5044292;28;20063;-75
2022/09/14 03:47:32;;;;;;;6.13;5.63;;;;;;;;;;5041097;28;20423;-75
2022/09/14 03:49:57;;;;;;;6.03;5.53;;;;;;;;;;5055645;28;20447;-75
2022/09/14 03:52:23;;;;;;;6.43;5.82;;;;;;;;;;5061168;28;20028;-74
2022/09/14 03:54:48;;;;;;;6.05;5.55;;;;;;;;;;5061401;28;20041;-74
2022/09/14 03:57:14;;;;;;;5.78;5.28;;;;;;;;;;5060412;28;20025;-74
2022/09/14 03:59:39;;;;;;;6.40;5.90;;;;;;;;;;5056132;28;20163;-75
2022/09/14 04:02:05;;;;;;;6.43;5.93;;;;;;;;;;5044656;28;20488;-77
2022/09/14 04:04:30;;;;;;;6.85;6.32;;;;;;;;;;5038658;28;20032;-75
2022/09/14 04:06:55;;;;;;;7.10;6.10;;;;;;;;;;5043520;28;20113;-76
2022/09/14 04:09:21;;;;;;;6.55;6.05;;;;;;;;;;5044671;28;20047;-75
2022/09/14 04:11:46;;;;;;;6.38;5.88;;;;;;;;;;5039679;28;20086;-75
2022/09/14 04:14:12;;;;;;;6.63;6.13;;;;;;;;;;5041785;28;20031;-75
2022/09/14 04:16:38;;;;;;;6.60;6.00;;;;;;;;;;5039496;28;20025;-74
2022/09/14 04:19:03;;;;;;;7.97;7.28;;;;;;;;;;5035019;28;20399;-75
2022/09/14 04:21:28;;;;;;;8.45;7.65;;;;;;;;;;5037437;28;20070;-75
2022/09/14 04:23:55;;;;;;;7.13;6.57;;;;;;;;;;5036236;28;20112;-77
2022/09/14 04:26:21;;;;;;;8.05;6.72;;;;;;;;;;5043153;28;20036;-75
2022/09/14 04:28:46;;;;;;;7.75;7.15;;;;;;;;;;5048363;28;20093;-75
2022/09/14 04:31:12;;;;;;;7.18;6.57;;;;;;;;;;5050387;28;20025;-72
2022/09/14 04:33:39;;;;;;;7.40;6.80;;;;;;;;;;5059261;28;20020;-75
2022/09/14 04:36:06;;;;;;;7.72;7.03;;;;;;;;;;5058564;28;20151;-75
2022/09/14 04:38:32;;;;;;;7.68;6.95;;;;;;;;;;5059867;28;20027;-73
2022/09/14 04:40:58;;;;;;;8.00;6.82;;;;;;;;;;5045016;28;20033;-76
2022/09/14 04:43:24;;;;;;;8.25;7.38;;;;;;;;;;5038300;28;20067;-73
2022/09/14 04:45:50;;;;;;;8.80;7.40;;;;;;;;;;5056913;28;20033;-74
2022/09/14 04:48:15;;;;;;;7.72;7.03;;;;;;;;;;5048271;28;20047;-72
2022/09/14 04:50:40;;;;;;;8.20;7.03;;;;;;;;;;5048256;28;20024;-72
2022/09/14 04:53:06;;;;;;;7.28;6.68;;;;;;;;;;5055344;28;20025;-72
2022/09/14 04:55:31;;;;;;;7.75;7.05;;;;;;;;;;5055926;28;20036;-75
2022/09/14 04:57:56;;;;;;;8.57;6.95;;;;;;;;;;5056980;28;20020;-72
2022/09/14 05:00:22;;;;;;;8.10;6.63;;;;;;;;;;5053112;28;20020;-72
2022/09/14 05:02:47;;;;;;;7.50;6.57;;;;;;;;;;5056287;28;20025;-72
2022/09/14 05:05:13;;;;;;;6.93;6.32;;;;;;;;;;5057145;28;20032;-73
2022/09/14 05:07:38;;;;;;;6.97;6.38;;;;;;;;;;5055547;28;20644;-72
2022/09/14 05:10:04;;;;;;;7.30;6.60;;;;;;;;;;5057284;28;20439;-73
2022/09/14 05:12:29;;;;;;;10.52;9.23;;;;;;;;;;5056843;28;20136;-73
2022/09/14 05:14:55;;;;;;;10.13;8.13;;;;;;;;;;5039000;28;20021;-73
2022/09/14 05:17:20;;;;;;;9.13;8.20;;;;;;;;;;5042067;28;20020;-72
2022/09/14 05:19:45;;;;;;;7.60;7.00;;;;;;;;;;5036878;28;20043;-74
2022/09/14 05:22:11;;;;;;;9.02;8.32;;;;;;;;;;5036448;28;20100;-73
2022/09/14 05:24:36;;;;;;;8.05;7.43;;;;;;;;;;5042958;28;20037;-73
2022/09/14 05:27:01;;;;;;;9.90;8.13;;;;;;;;;;5050855;28;20081;-73
2022/09/14 05:29:28;;;;;;;8.82;7.85;;;;;;;;;;5038452;28;20779;-74
2022/09/14 05:31:54;;;;;;;10.70;7.82;;;;;;;;;;5057013;28;20038;-76
2022/09/14 05:34:19;;;;;;;10.50;7.93;;;;;;;;;;5047387;28;20911;-75
2022/09/14 05:36:45;;;;;;;7.45;6.75;;;;;;;;;;5051183;28;20452;-75
2022/09/14 05:39:10;;;;;;;7.45;6.85;;;;;;;;;;5061487;28;20085;-73
2022/09/14 05:41:36;;;;;;;7.40;6.80;;;;;;;;;;5059840;28;20028;-77
2022/09/14 05:44:02;;;;;;;7.68;6.97;;;;;;;;;;5058097;28;20072;-71
2022/09/14 05:46:27;;;;;;;7.45;6.75;;;;;;;;;;5053129;28;20016;-73
2022/09/14 05:48:52;;;;;;;7.68;6.82;;;;;;;;;;5051630;28;20072;-73
2022/09/14 05:51:19;;;;;;;14.73;13.25;;;;;;;;;;5039766;28;20048;-75
2022/09/14 05:53:49;;;;;;;9.02;8.32;;;;;;;;;;5038727;28;20020;-75
2022/09/14 05:56:15;;;;;;;8.25;7.65;;;;;;;;;;5052110;28;20032;-74
2022/09/14 05:58:40;;;;;;;8.13;7.38;;;;;;;;;;5053181;28;20029;-74
2022/09/14 06:01:17;;;;;;;8.02;7.32;;;;;;;;;;5046115;28;20387;-74
2022/09/14 06:03:43;;;;;;;8.73;7.82;;;;;;;;;;5037497;28;20885;-72
2022/09/14 06:06:10;;;;;;;7.30;6.70;;;;;;;;;;5050600;28;20028;-74
2022/09/14 06:08:35;;;;;;;6.53;6.03;;;;;;;;;;5051454;28;20020;-74
2022/09/14 06:11:08;;;;;;;5.88;5.32;;;;;;;;;;5036123;28;20040;-74
2022/09/14 06:13:33;;;;;;;5.28;4.88;;;;;;;;;;5023421;28;20132;-75
2022/09/14 06:16:06;;;;;;;5.43;4.93;;;;;;;;;;5019797;28;20123;-74
2022/09/14 06:18:32;;;;;;;4.90;4.50;;;;;;;;;;5019609;28;20029;-74
2022/09/14 06:20:57;;;;;;;4.93;4.50;;;;;;;;;;5021039;28;20954;-73
2022/09/14 06:23:23;;;;;;;5.40;4.90;;;;;;;;;;5023135;28;20600;-73
2022/09/14 06:25:51;;;;;;;5.15;4.55;;;;;;;;;;5047450;28;20079;-72
2022/09/14 06:28:16;;;;;;;4.72;4.32;;;;;;;;;;5043271;28;20054;-74
2022/09/14 06:30:43;;;;;;;5.68;4.72;;;;;;;;;;5020602;28;20029;-75
2022/09/14 06:33:08;;;;;;;14.93;6.10;;;;;;;;;;5020887;28;20460;-73
2022/09/14 06:35:33;;;;;;;10.73;9.43;;;;;;;;;;5017005;28;20029;-74
2022/09/14 06:37:59;;;;;;;15.38;8.57;;;;;;;;;;5026126;28;20794;-76
2022/09/14 06:40:25;;;;;;;6.65;5.63;;;;;;;;;;5051258;28;20093;-73
2022/09/14 06:42:51;;;;;;;5.35;4.85;;;;;;;;;;5049930;28;20401;-74
2022/09/14 06:45:16;;;;;;;6.70;4.22;;;;;;;;;;5051615;28;20029;-73
2022/09/14 06:47:41;;;;;;;4.80;4.00;;;;;;;;;;5050809;28;20098;-75
2022/09/14 06:50:07;;;;;;;3.67;3.38;;;;;;;;;;5051164;28;20033;-73
2022/09/14 06:52:34;;;;;;;8.60;7.90;;;;;;;;;;5034222;28;20456;-75
2022/09/14 06:54:59;;;;;;;5.95;5.30;;;;;;;;;;5030864;28;20039;-74
2022/09/14 06:57:25;;;;;;;7.18;5.53;;;;;;;;;;5052631;28;20024;-76
2022/09/14 06:59:50;;;;;;;4.75;4.35;;;;;;;;;;5048779;28;20032;-74
2022/09/14 07:02:15;;;;;;;5.20;4.80;;;;;;;;;;5051259;28;20494;-76
2022/09/14 07:04:41;;;;;;;5.65;5.00;;;;;;;;;;5052942;28;20469;-76
2022/09/14 07:07:06;;;;;;;5.65;4.60;;;;;;;;;;5051184;28;20023;-74
2022/09/14 07:09:32;;;;;;;6.93;5.28;;;;;;;;;;5052392;28;20036;-76
2022/09/14 07:11:57;;;;;;;6.97;6.20;;;;;;;;;;5049700;28;20029;-74
2022/09/14 07:14:22;;;;;;;11.85;10.68;;;;;;;;;;5050478;28;20052;-77
2022/09/14 07:16:48;;;;;;;5.00;4.60;;;;;;;;;;5050844;28;20024;-75
2022/09/14 07:19:14;;;;;;;8.18;7.07;;;;;;;;;;5022300;28;20048;-74
2022/09/14 07:21:39;;;;;;;6.70;5.85;;;;;;;;;;5047180;28;20102;-76
2022/09/14 07:24:05;;;;;;;6.80;6.20;;;;;;;;;;5018296;28;20132;-75
2022/09/14 07:26:41;;;;;;;5.95;4.68;;;;;;;;;;5019194;28;20039;-75
2022/09/14 07:29:08;;;;;;;5.68;3.75;;;;;;;;;;5019266;28;20021;-74
2022/09/14 07:31:35;;;;;;;3.50;3.20;;;;;;;;;;5017545;28;20028;-73
2022/09/14 07:34:02;;;;;;;3.35;3.03;;;;;;;;;;5017951;28;20078;-73
2022/09/14 07:36:28;;;;;;;4.30;3.30;;;;;;;;;;5016144;28;20043;-77
2022/09/14 07:38:53;;;;;;;6.60;5.40;;;;;;;;;;5019345;28;20036;-74
2022/09/14 07:41:19;;;;;;;4.78;4.38;;;;;;;;;;5019014;28;20151;-73
2022/09/14 07:43:48;;;;;;;5.28;4.03;;;;;;;;;;5019346;28;20107;-72
2022/09/14 07:46:14;;;;;;;4.15;3.78;;;;;;;;;;5013808;28;20052;-73
2022/09/14 07:48:40;;;;;;;6.13;3.33;;;;;;;;;;5017507;28;20056;-76
2022/09/14 07:51:07;;;;;;;3.70;3.20;;;;;;;;;;5018546;28;20025;-74
2022/09/14 07:53:41;;;;;;;3.65;2.80;;;;;;;;;;5015770;28;23561;-74
2022/09/14 07:56:07;;;;;;;5.28;3.30;;;;;;;;;;5001163;28;20140;-74
2022/09/14 07:58:32;;;;;;;3.22;2.40;;;;;;;;;;5018834;28;20052;-74
2022/09/14 08:00:58;;;;;;;3.35;2.67;;;;;;;;;;5017377;28;20024;-73
2022/09/14 08:03:24;;;;;;;5.53;3.13;;;;;;;;;;5019495;28;20036;-75
2022/09/14 08:05:56;;;;;;;4.60;3.28;;;;;;;;;;5043725;28;20032;-73
2022/09/14 08:08:23;;;;;;;3.30;3.00;;;;;;;;;;5017023;28;21160;-74
2022/09/14 08:10:48;;;;;;;4.72;3.13;;;;;;;;;;5018523;28;20036;-74
2022/09/14 08:13:14;;;;;;;5.03;3.47;;;;;;;;;;5016449;28;20024;-74
2022/09/14 08:15:39;;;;;;;5.75;5.20;;;;;;;;;;5018094;28;20036;-75
2022/09/14 08:18:04;;;;;;;3.95;3.08;;;;;;;;;;5015117;28;20597;-73
2022/09/14 08:20:30;;;;;;;4.57;2.80;;;;;;;;;;5021927;28;20043;-75
2022/09/14 08:22:55;;;;;;;2.55;2.20;;;;;;;;;;5029330;28;22267;-73
2022/09/14 08:25:20;;;;;;;9.40;2.92;;;;;;;;;;5048458;28;20028;-74
2022/09/14 08:27:46;;;;;;;6.20;2.70;;;;;;;;;;5050274;28;20025;-75
2022/09/14 08:30:12;;;;;;;2.80;2.30;;;;;;;;;;5049457;28;20104;-73
2022/09/14 08:32:37;;;;;;;2.28;2.00;;;;;;;;;;5048814;28;20071;-75
2022/09/14 08:35:03;;;;;;;6.85;3.65;;;;;;;;;;5038592;28;20115;-74
2022/09/14 08:37:28;;;;;;;3.67;3.00;;;;;;;;;;5030491;28;20040;-74
2022/09/14 08:39:53;;;;;;;8.35;5.88;;;;;;;;;;5048589;28;20025;-75
2022/09/14 08:42:21;;;;;;;4.60;2.75;;;;;;;;;;5049021;28;20071;-76
2022/09/14 08:44:55;;;;;;;5.70;2.63;;;;;;;;;;5051258;28;20344;-76
2022/09/14 08:47:37;;;;;;;3.70;3.40;;;;;;;;;;5024927;28;20023;-75
2022/09/14 08:50:11;;;;;;;3.10;2.08;;;;;;;;;;5032903;28;20086;-76
2022/09/14 08:52:36;;;;;;;2.92;2.50;;;;;;;;;;5018874;28;20117;-77
2022/09/14 08:55:17;;;;;;;4.10;1.98;;;;;;;;;;5020401;28;20078;-77
2022/09/14 08:57:45;;;;;;;6.13;2.15;;;;;;;;;;5023150;28;20032;-77
2022/09/14 09:00:12;;;;;;;1.95;1.80;;;;;;;;;;5028416;28;20028;-75
2022/09/14 09:02:47;;;;;;;2.95;2.00;;;;;;;;;;5027681;28;20110;-76
2022/09/14 09:05:18;;;;;;;4.28;2.70;;;;;;;;;;5028687;28;20119;-77
2022/09/14 09:07:53;;;;;;;7.22;2.35;;;;;;;;;;5026885;28;20040;-74
2022/09/14 09:10:18;;;;;;;4.13;2.10;;;;;;;;;;5025447;28;20347;-77
2022/09/14 09:12:46;;;;;;;2.45;2.15;;;;;;;;;;5023848;28;20032;-76
2022/09/14 09:15:20;;;;;;;3.58;2.25;;;;;;;;;;5023532;28;20028;-73
2022/09/14 09:17:47;;;;;;;2.88;2.40;;;;;;;;;;5027252;28;20060;-76
2022/09/14 09:20:16;;;;;;;3.85;2.40;;;;;;;;;;5025286;28;20038;-74
2022/09/14 09:22:46;;;;;;;8.88;3.75;;;;;;;;;;5025386;28;20024;-75
2022/09/14 09:25:18;;;;;;;2.40;2.20;;;;;;;;;;5025027;28;20067;-75
2022/09/14 09:27:43;;;;;;;4.47;2.55;;;;;;;;;;5025953;28;20033;-75
2022/09/14 09:30:13;;;;;;;2.58;2.15;;;;;;;;;;5026766;28;20079;-75
2022/09/14 09:32:38;;;;;;;3.30;2.20;;;;;;;;;;5023214;28;20068;-75
2022/09/14 09:35:04;;;;;;;3.75;2.08;;;;;;;;;;5005396;28;20123;-76
2022/09/14 09:37:30;;;;;;;3.70;2.13;;;;;;;;;;5021417;28;20036;-76
2022/09/14 09:39:55;;;;;;;3.75;1.80;;;;;;;;;;5023216;28;20095;-77
2022/09/14 09:42:22;;;;;;;4.88;1.88;;;;;;;;;;5025126;28;20047;-77
2022/09/14 09:44:54;;;;;;;2.65;1.65;;;;;;;;;;5022243;28;20570;-76
2022/09/14 09:47:37;;;;;;;2.33;2.00;;;;;;;;;;5022136;28;20059;-75
2022/09/14 09:50:04;;;;;;;2.10;1.92;;;;;;;;;;5025550;28;20025;-76
2022/09/14 09:52:30;;;;;;;2.75;1.77;;;;;;;;;;5025952;28;20112;-77
2022/09/14 09:54:57;;;;;;;3.17;2.25;;;;;;;;;;5025930;28;20031;-74
2022/09/14 09:57:32;;;;;;;7.05;2.50;;;;;;;;;;5025825;28;20028;-74
2022/09/14 10:00:07;;;;;;;3.67;2.03;;;;;;;;;;5023229;28;20367;-75
2022/09/14 10:02:33;;;;;;;4.35;2.95;;;;;;;;;;5026565;28;20075;-76
2022/09/14 10:05:00;;;;;;;1.83;1.60;;;;;;;;;;5026627;28;20048;-77
2022/09/14 10:07:25;;;;;;;5.13;1.70;;;;;;;;;;5026307;28;20024;-75
2022/09/14 10:09:57;;;;;;;2.80;1.30;;;;;;;;;;5021596;28;20035;-75
2022/09/14 10:12:22;;;;;;;2.65;1.55;;;;;;;;;;5022400;28;20082;-76
2022/09/14 10:14:49;;;;;;;1.65;1.55;;;;;;;;;;5021753;28;20448;-75
2022/09/14 10:17:21;;;;;;;3.25;1.77;;;;;;;;;;5022599;28;20040;-76
2022/09/14 10:19:51;;;;;;;1.67;1.50;;;;;;;;;;5021617;28;20025;-76
2022/09/14 10:22:25;;;;;;;1.60;1.50;;;;;;;;;;5037333;28;20035;-77
2022/09/14 10:24:53;;;;;;;1.58;1.40;;;;;;;;;;5051984;28;20486;-75
2022/09/14 10:27:38;;;;;;;2.45;1.70;;;;;;;;;;5052800;28;20025;-77
2022/09/14 10:30:05;;;;;;;2.78;1.60;;;;;;;;;;5051533;28;20056;-75
2022/09/14 10:32:32;;;;;;;2.80;1.77;;;;;;;;;;5050721;28;20022;-75
2022/09/14 10:34:58;;;;;;;4.03;1.77;;;;;;;;;;5051613;28;20036;-75
2022/09/14 10:37:28;;;;;;;1.70;1.60;;;;;;;;;;5052188;28;20032;-75
2022/09/14 10:40:32;;;;;;;2.08;1.88;;;;;;;;;;5051454;28;20135;-76
2022/09/14 10:43:06;;;;;;;2.97;2.08;;;;;;;;;;4992994;28;20034;-75
2022/09/14 10:45:34;;;;;;;1.80;1.70;;;;;;;;;;4990939;28;20037;-74
2022/09/14 10:48:05;;;;;;;4.43;1.90;;;;;;;;;;4991806;28;20413;-75
2022/09/14 10:50:49;;;;;;;1.73;1.40;;;;;;;;;;4991427;28;20268;-78
2022/09/14 10:53:15;;;;;;;1.80;1.60;;;;;;;;;;4991181;28;20035;-76
2022/09/14 10:55:49;;;;;;;1.70;1.58;;;;;;;;;;4989633;28;20049;-76
2022/09/14 10:58:23;;;;;;;2.80;2.20;;;;;;;;;;4987091;28;20034;-75
2022/09/14 11:01:07;;;;;;;2.47;1.45;;;;;;;;;;4989099;28;20072;-74
2022/09/14 11:03:32;;;;;;;3.33;1.70;;;;;;;;;;4989196;28;20042;-75
2022/09/14 11:06:13;;;;;;;1.73;1.63;;;;;;;;;;4989710;28;20028;-74
2022/09/14 11:08:38;;;;;;;5.55;5.05;;;;;;;;;;4989139;28;20465;-75
2022/09/14 11:11:26;;;;;;;9.57;6.88;;;;;;;;;;4990167;28;20026;-74
2022/09/14 11:14:06;;;;;;;4.88;3.10;;;;;;;;;;5021511;28;20040;-75
2022/09/14 11:16:46;;;;;;;1.70;1.58;;;;;;;;;;5047198;28;20360;-76
2022/09/14 11:19:30;;;;;;;2.13;1.58;;;;;;;;;;5049658;28;20431;-75
2022/09/14 11:21:59;;;;;;;3.10;1.65;;;;;;;;;;5050339;28;20040;-76
2022/09/14 11:24:30;;;;;;;1.58;1.48;;;;;;;;;;5049137;28;20112;-75
2022/09/14 11:27:02;;;;;;;1.90;1.73;;;;;;;;;;5048580;28;20726;-75
2022/09/14 11:29:32;;;;;;;1.88;1.58;;;;;;;;;;5047108;28;20027;-75
2022/09/14 11:32:03;;;;;;;3.90;2.42;;;;;;;;;;5047508;28;20116;-76
2022/09/14 11:34:38;;;;;;;4.57;2.55;;;;;;;;;;5048057;28;20428;-75
2022/09/14 11:37:18;;;;;;;2.10;1.80;;;;;;;;;;5050133;28;20021;-74
2022/09/14 11:40:01;;;;;;;4.05;2.28;;;;;;;;;;5049104;28;20083;-75
2022/09/14 11:42:31;;;;;;;2.20;1.30;;;;;;;;;;5049738;28;20048;-74
2022/09/14 11:45:05;;;;;;;3.55;1.67;;;;;;;;;;5067955;28;20049;-75
2022/09/14 11:47:37;;;;;;;3.35;1.80;;;;;;;;;;5068165;28;20043;-76
2022/09/14 11:50:15;;;;;;;1.95;1.63;;;;;;;;;;5068729;28;20040;-75
2022/09/14 11:52:41;;;;;;;5.40;2.63;;;;;;;;;;5067902;28;20020;-75
2022/09/14 11:55:14;;;;;;;2.50;1.80;;;;;;;;;;5069530;28;20592;-76
2022/09/14 11:57:39;;;;;;;2.80;2.50;;;;;;;;;;5066898;28;20903;-75
2022/09/14 12:00:29;;;;;;;2.38;1.90;;;;;;;;;;5067683;28;20036;-74
2022/09/14 12:02:57;;;;;;;2.22;1.50;;;;;;;;;;5067434;28;20103;-76
2022/09/14 12:05:25;;;;;;;2.88;1.70;;;;;;;;;;5068223;28;20027;-76
2022/09/14 12:07:54;;;;;;;7.05;2.45;;;;;;;;;;5067109;28;20089;-74
2022/09/14 12:10:20;;;;;;;6.25;4.40;;;;;;;;;;5068404;28;20490;-74
2022/09/14 12:12:45;;;;;;;2.92;1.50;;;;;;;;;;5068612;28;20028;-77
2022/09/14 12:15:32;;;;;;;1.45;1.30;;;;;;;;;;5067823;28;20115;-75
2022/09/14 12:18:06;;;;;;;1.95;1.73;;;;;;;;;;5066679;28;20029;-75
2022/09/14 12:20:35;;;;;;;3.53;3.22;;;;;;;;;;5066786;28;20067;-76
2022/09/14 12:23:19;;;;;;;5.43;2.33;;;;;;;;;;5067229;28;20031;-75
2022/09/14 12:25:57;;;;;;;5.35;1.83;;;;;;;;;;5067632;28;20028;-75
2022/09/14 12:28:29;;;;;;;5.05;1.50;;;;;;;;;;5065603;28;20032;-76
2022/09/14 12:30:54;;;;;;;3.30;1.77;;;;;;;;;;5065970;28;20020;-75
2022/09/14 12:35:57;;;;;;;2.75;1.52;;;;;;;;;;5068962;28;20028;-76
2022/09/14 12:38:28;;;;;;;2.75;1.50;;;;;;;;;;5068097;28;20339;-76
2022/09/14 12:40:54;;;;;;;4.03;1.42;;;;;;;;;;5067537;28;20082;-75
2022/09/14 12:43:32;;;;;;;1.92;1.33;;;;;;;;;;5067849;28;20071;-74
2022/09/14 12:46:16;;;;;;;3.33;1.50;;;;;;;;;;5066717;28;20086;-76
2022/09/14 12:48:47;;;;;;;4.28;1.45;;;;;;;;;;5067291;28;20040;-75
2022/09/14 12:51:25;;;;;;;1.65;1.50;;;;;;;;;;5065978;28;20021;-76
2022/09/14 12:54:05;;;;;;;2.47;1.52;;;;;;;;;;5069324;28;20173;-76
2022/09/14 12:56:42;;;;;;;3.38;1.60;;;;;;;;;;5068308;28;20044;-75
2022/09/14 12:59:25;;;;;;;3.08;1.30;;;;;;;;;;5066563;28;20333;-76
2022/09/14 13:01:58;;;;;;;2.53;1.65;;;;;;;;;;5067257;28;20096;-76
2022/09/14 13:04:33;;;;;;;2.55;1.13;;;;;;;;;;5065840;28;20342;-75
2022/09/14 13:06:59;;;;;;;3.53;1.50;;;;;;;;;;5066946;28;20032;-76
2022/09/14 13:09:25;;;;;;;4.43;1.45;;;;;;;;;;5067017;28;20061;-75
2022/09/14 13:11:59;;;;;;;2.00;1.15;;;;;;;;;;5067243;28;20033;-76
2022/09/14 13:14:26;;;;;;;1.15;1.05;;;;;;;;;;5056320;28;20036;-75
2022/09/14 13:16:53;;;;;;;3.20;2.90;;;;;;;;;;5066165;28;20029;-76
2022/09/14 13:19:20;;;;;;;2.38;1.25;;;;;;;;;;5061942;28;20052;-76
2022/09/14 13:21:50;;;;;;;1.55;1.45;;;;;;;;;;5065677;28;20035;-75
2022/09/14 13:24:20;;;;;;;1.88;1.40;;;;;;;;;;5066157;28;20024;-75
2022/09/14 13:26:47;;;;;;;3.85;1.13;;;;;;;;;;5056663;28;20075;-73
2022/09/14 13:29:13;;;;;;;3.58;1.65;;;;;;;;;;5056143;28;20032;-73
2022/09/14 13:31:39;;;;;;;1.63;1.48;;;;;;;;;;5057599;28;20032;-74
2022/09/14 13:34:04;;;;;;;2.50;1.80;;;;;;;;;;5058167;28;20046;-74
2022/09/14 13:36:34;;;;;;;1.45;1.25;;;;;;;;;;5039546;28;20337;-74
2022/09/14 13:39:00;;;;;;;2.03;1.27;;;;;;;;;;5042341;28;20029;-75
2022/09/14 13:41:27;;;;;;;1.70;1.25;;;;;;;;;;5037373;28;20055;-73
2022/09/14 13:43:53;;;;;;;4.15;2.20;;;;;;;;;;5040065;28;20057;-74
2022/09/14 13:46:19;;;;;;;1.60;1.25;;;;;;;;;;5046018;28;20032;-75
2022/09/14 13:48:44;;;;;;;3.20;1.50;;;;;;;;;;5043741;28;20040;-74
2022/09/14 13:51:11;;;;;;;1.50;1.13;;;;;;;;;;5039478;28;20025;-73
2022/09/14 13:53:45;;;;;;;3.83;1.30;;;;;;;;;;5044089;28;20450;-73
2022/09/14 13:56:16;;;;;;;2.42;1.10;;;;;;;;;;5042594;28;20029;-74
2022/09/14 13:58:42;;;;;;;2.63;1.20;;;;;;;;;;5044589;28;20449;-77
2022/09/14 14:01:07;;;;;;;3.05;2.78;;;;;;;;;;5044584;28;20024;-74
2022/09/14 14:03:37;;;;;;;3.05;2.78;;;;;;;;;;5040860;28;20035;-74
2022/09/14 14:06:24;;;;;;;4.60;2.30;;;;;;;;;;5042343;28;20029;-74
2022/09/14 14:08:53;;;;;;;3.30;3.00;;;;;;;;;;5051928;28;20094;-76
2022/09/14 14:11:26;;;;;;;3.17;2.60;;;;;;;;;;5059631;28;20459;-74
2022/09/14 14:13:51;;;;;;;1.95;1.42;;;;;;;;;;5058921;28;20387;-73
2022/09/14 14:16:21;;;;;;;1.30;1.20;;;;;;;;;;5057245;28;20032;-75
2022/09/14 14:18:56;;;;;;;1.13;1.02;;;;;;;;;;5061820;28;20016;-77
2022/09/14 14:21:21;;;;;;;1.00;1.00;;;;;;;;;;5060922;28;20523;-73
2022/09/14 14:23:49;;;;;;;1.67;1.30;;;;;;;;;;5047691;28;20091;-74
2022/09/14 14:26:17;;;;;;;2.13;1.00;;;;;;;;;;5051319;28;20104;-73
2022/09/14 14:28:43;;;;;;;2.60;1.23;;;;;;;;;;5060455;28;20039;-74
2022/09/14 14:31:13;;;;;;;0.85;0.73;;;;;;;;;;5062183;28;20032;-73
2022/09/14 14:33:45;;;;;;;1.10;1.00;;;;;;;;;;5061070;28;20409;-73
2022/09/14 14:36:11;;;;;;;2.17;1.98;;;;;;;;;;5051996;28;20106;-72
2022/09/14 14:38:37;;;;;;;3.85;3.55;;;;;;;;;;5041457;28;20024;-73
2022/09/14 14:41:03;;;;;;;2.10;1.90;;;;;;;;;;5040162;28;20051;-74
2022/09/14 14:43:29;;;;;;;4.10;1.80;;;;;;;;;;5039454;28;20137;-74
2022/09/14 14:46:01;;;;;;;1.60;1.30;;;;;;;;;;5042229;28;20459;-76
2022/09/14 14:48:28;;;;;;;3.40;1.08;;;;;;;;;;5040344;28;20134;-73
2022/09/14 14:50:54;;;;;;;3.28;1.00;;;;;;;;;;5039469;28;20032;-73
2022/09/14 14:53:20;;;;;;;2.25;1.40;;;;;;;;;;5041910;28;20028;-73